Time,TemperatureF,DewpointF,PressureIn,WindDirection,WindDirectionDegrees,WindSpeedMPH,WindSpeedGustMPH,Humidity,HourlyPrecipIn,Conditions,Clouds,dailyrainin,SolarRadiationWatts/m^2,SoftwareType,DateUTC
2013-07-13 05:32:00,37.0,36.0,-100.00,SSW,194,1.0,5.0,97,-99.99,,,0.00,0.000000,,2013-07-13 12:32:00,
2013-07-13 05:43:00,37.0,36.0,-100.00,SSW,194,1.0,5.0,97,-99.99,,,0.00,0.000000,,2013-07-13 12:43:00,
2013-07-13 05:52:00,37.0,36.0,-100.00,SSW,194,1.0,5.0,97,-99.99,,,0.00,0.000000,,2013-07-13 12:52:00,
2013-07-13 06:43:00,40.0,39.0,-100.00,WSW,253,1.0,6.0,98,-99.99,,,0.00,5.000000,,2013-07-13 13:43:00,
2013-07-13 06:53:00,40.0,39.0,-100.00,WSW,253,1.0,6.0,98,-99.99,,,0.00,5.000000,,2013-07-13 13:53:00,
2013-07-13 07:02:00,40.0,39.0,-100.00,WSW,253,1.0,6.0,98,-99.99,,,0.00,5.000000,,2013-07-13 14:02:00,
2013-07-13 07:32:00,43.0,42.0,-100.00,NE,36,1.0,4.0,96,0.00,,,0.00,56.000000,,2013-07-13 14:32:00,
2013-07-13 07:43:00,43.0,42.0,-100.00,NE,36,1.0,4.0,96,0.00,,,0.00,56.000000,,2013-07-13 14:43:00,
2013-07-13 07:53:00,43.0,42.0,-100.00,NE,36,1.0,4.0,96,0.00,,,0.00,56.000000,,2013-07-13 14:53:00,
2013-07-13 08:02:00,43.0,42.0,-100.00,NE,36,1.0,4.0,96,0.00,,,0.00,56.000000,,2013-07-13 15:02:00,
2013-07-13 08:43:00,45.0,43.0,-100.00,NNW,348,1.0,3.0,92,0.00,,,0.00,72.000000,,2013-07-13 15:43:00,
2013-07-13 08:53:00,45.0,43.0,-100.00,NNW,348,1.0,3.0,92,0.00,,,0.00,72.000000,,2013-07-13 15:53:00,
2013-07-13 09:02:00,45.0,43.0,-100.00,NNW,348,1.0,3.0,92,0.00,,,0.00,72.000000,,2013-07-13 16:02:00,
2013-07-13 09:33:00,58.0,43.0,-100.00,NNE,32,1.0,5.0,57,0.00,,,0.00,386.000000,,2013-07-13 16:33:00,
2013-07-13 09:43:00,58.0,43.0,-100.00,NNE,32,1.0,5.0,57,0.00,,,0.00,386.000000,,2013-07-13 16:43:00,
2013-07-13 09:53:00,58.0,43.0,-100.00,NNE,32,1.0,5.0,57,0.00,,,0.00,386.000000,,2013-07-13 16:53:00,
2013-07-13 10:01:00,58.0,43.0,-100.00,NNE,32,1.0,5.0,57,0.00,,,0.00,386.000000,,2013-07-13 17:01:00,
2013-07-13 10:33:00,65.0,41.0,-100.00,NNW,332,2.0,5.0,41,0.00,,,0.00,864.000000,,2013-07-13 17:33:00,
2013-07-13 10:43:00,65.0,41.0,-100.00,NNW,332,2.0,5.0,41,0.00,,,0.00,864.000000,,2013-07-13 17:43:00,
2013-07-13 10:52:00,65.0,41.0,-100.00,NNW,332,2.0,5.0,41,0.00,,,0.00,864.000000,,2013-07-13 17:52:00,
2013-07-13 11:01:00,65.0,41.0,-100.00,NNW,332,2.0,5.0,41,0.00,,,0.00,864.000000,,2013-07-13 18:01:00,
2013-07-13 11:44:00,72.0,42.0,-100.00,NW,319,2.0,7.0,34,0.00,,,0.00,1052.000000,,2013-07-13 18:44:00,
2013-07-13 11:53:00,72.0,42.0,-100.00,NW,319,2.0,7.0,34,0.00,,,0.00,1052.000000,,2013-07-13 18:53:00,
2013-07-13 12:02:00,72.0,42.0,-100.00,NW,319,2.0,7.0,34,0.00,,,0.00,1052.000000,,2013-07-13 19:02:00,
2013-07-13 12:32:00,75.0,42.0,-100.00,ESE,111,3.0,10.0,31,0.00,,,0.00,1192.000000,,2013-07-13 19:32:00,
2013-07-13 12:44:00,75.0,42.0,-100.00,ESE,111,3.0,10.0,31,0.00,,,0.00,1192.000000,,2013-07-13 19:44:00,
2013-07-13 12:52:00,75.0,42.0,-100.00,ESE,111,3.0,10.0,31,0.00,,,0.00,1192.000000,,2013-07-13 19:52:00,
2013-07-13 13:01:00,75.0,42.0,-100.00,ESE,111,3.0,10.0,31,0.00,,,0.00,1192.000000,,2013-07-13 20:01:00,
2013-07-13 13:33:00,79.0,34.0,-100.00,NNW,332,3.0,12.0,20,0.00,,,0.00,1263.000000,,2013-07-13 20:33:00,
2013-07-13 13:43:00,79.0,34.0,-100.00,NNW,332,3.0,12.0,20,0.00,,,0.00,1263.000000,,2013-07-13 20:43:00,
2013-07-13 14:32:00,80.0,34.0,-100.00,East,87,3.0,10.0,19,-99.99,,,0.00,1261.000000,,2013-07-13 21:32:00,
2013-07-13 14:43:00,80.0,34.0,-100.00,East,87,3.0,10.0,19,-99.99,,,0.00,1261.000000,,2013-07-13 21:43:00,
2013-07-13 15:32:00,82.0,36.0,-100.00,NNW,336,3.0,11.0,19,-99.99,,,-99.99,1196.000000,,2013-07-13 22:32:00,
2013-07-13 15:43:00,82.0,36.0,-100.00,NNW,336,3.0,11.0,19,-99.99,,,-99.99,1196.000000,,2013-07-13 22:43:00,
2013-07-13 17:33:00,84.0,42.0,-100.00,West,276,3.0,10.0,23,-99.99,,,0.00,881.000000,,2013-07-14 00:33:00,
2013-07-13 17:42:00,84.0,42.0,-100.00,West,276,3.0,10.0,23,-99.99,,,0.00,881.000000,,2013-07-14 00:42:00,
2013-07-13 17:53:00,84.0,42.0,-100.00,West,276,3.0,10.0,23,-99.99,,,0.00,881.000000,,2013-07-14 00:53:00,
2013-07-13 18:43:00,81.0,44.0,-100.00,WNW,290,3.0,11.0,27,-99.99,,,0.00,664.000000,,2013-07-14 01:43:00,
2013-07-13 19:32:00,72.0,46.0,-100.00,West,263,2.0,8.0,39,-99.99,,,0.00,272.000000,,2013-07-14 02:32:00,
2013-07-13 19:43:00,72.0,46.0,-100.00,West,263,2.0,8.0,39,-99.99,,,0.00,272.000000,,2013-07-14 02:43:00,
2013-07-13 19:53:00,72.0,46.0,-100.00,West,263,2.0,8.0,39,-99.99,,,0.00,272.000000,,2013-07-14 02:53:00,
2013-07-13 20:01:00,72.0,46.0,-100.00,West,263,2.0,8.0,39,-99.99,,,0.00,272.000000,,2013-07-14 03:01:00,
2013-07-13 20:53:00,63.0,45.0,-100.00,SW,228,2.0,7.0,52,0.00,,,0.00,91.000000,,2013-07-14 03:53:00,
2013-07-13 21:02:00,63.0,45.0,-100.00,SW,228,2.0,7.0,52,0.00,,,0.00,91.000000,,2013-07-14 04:02:00,
2013-07-13 21:54:00,57.0,44.0,-100.00,NNE,19,1.0,6.0,62,0.00,,,-99.99,9.000000,,2013-07-14 04:54:00,
2013-07-13 22:02:00,57.0,44.0,-100.00,NNE,19,1.0,6.0,62,0.00,,,-99.99,9.000000,,2013-07-14 05:02:00,
2013-07-13 22:53:00,53.0,46.0,-100.00,NNE,13,1.0,3.0,77,0.00,,,0.00,0.000000,,2013-07-14 05:53:00,
2013-07-13 23:01:00,53.0,46.0,-100.00,NNE,13,1.0,3.0,77,0.00,,,0.00,0.000000,,2013-07-14 06:01:00,